Effingham, SC (29541)

2:52 AM EDT on August 24, 2016 (GMT -0400)
Marsh Pointe | | Change Station

Elev 118 ft 34.15 °N, 79.79 °W | Updated 11 minutes ago

Clear
Clear
71.2 °F
Feels Like 71.2 °F
N
0.0
Wind Variable Wind from North

Today
High -- | Low -- °F
--% Chance of Precip.
Yesterday
High -- | Low -- °F
Precip. -- in
Pressure 30.25 in
Visibility 10.0 miles
Clouds Clear
Dew Point 66 °F
Humidity 87%
Rainfall Not available.
Snow Depth Not available.
6:47 AM 7:54 PM
Waning Gibbous, 60% visible
METAR KFLO 240553Z AUTO 07004KT 10SM CLR 22/19 A3025 RMK AO2 SLP241 T02220194 10278 20222 58004
Pressure 30.25 in
Visibility 10.0 miles
Clouds Clear
Dew Point 66 °F
Humidity 87%
Rainfall Not available.
Snow Depth Not available.
6:47 AM 7:54 PM
Waning Gibbous, 60% visible
METAR KFLO 240553Z AUTO 07004KT 10SM CLR 22/19 A3025 RMK AO2 SLP241 T02220194 10278 20222 58004

10-Day Weather Forecast

Almanac

Astronomy

Aug. 24, 2016 Rise Set
Actual Time
Civil Twilight
Nautical Twilight
Astronomical Twilight
Moon
Length of Visible Light
Length of Day
Tomorrow will be .
, % of the Moon is Illuminated

Today's Extremes

State Highs State Lows

Community

WunderPhotos

Upload Photos

1,934,555 photos uploaded!

WunderBlog® & News

Nearby

Air Quality

  Air Quality AQ Index Pollutant
Not available.

Snow Depth

Station Depth Elevation

Earthquake Activity

City Distance Mag. Time & Date
Minimum magnitude displayed is 2.5.

Coastal Water Temperatures

Place Temperature

Stations

Nearby Weather Stations

Station Location Temp. Windchill Dew Point Humidity Wind Precip. Elev Updated Type
                   

Watches & Warnings

There are currently no watches in effect.